createdAt,value
2022-11-30T00:02:13.000Z,15.80
2022-11-30T00:12:13.000Z,16.80
2022-11-30T00:22:12.000Z,17.40
2022-11-30T00:32:12.000Z,17.70
2022-11-30T00:42:12.000Z,16.70
2022-11-30T00:52:12.000Z,17.70
2022-11-30T01:02:12.000Z,18.00
2022-11-30T01:12:12.000Z,18.50
2022-11-30T01:22:12.000Z,20.60
2022-11-30T01:32:12.000Z,21.00
2022-11-30T01:42:12.000Z,22.20
2022-11-30T01:52:12.000Z,22.20
2022-11-30T02:02:11.000Z,22.30
2022-11-30T02:12:11.000Z,23.30
2022-11-30T02:22:11.000Z,22.70
2022-11-30T02:32:11.000Z,22.80
2022-11-30T02:42:11.000Z,23.30
2022-11-30T02:52:11.000Z,23.90
2022-11-30T03:02:11.000Z,23.90
2022-11-30T03:12:11.000Z,24.40
2022-11-30T03:22:11.000Z,25.50
2022-11-30T03:32:11.000Z,24.60
2022-11-30T03:42:11.000Z,25.00
2022-11-30T03:52:10.000Z,25.10
2022-11-30T04:02:10.000Z,24.40
2022-11-30T04:12:10.000Z,23.90
2022-11-30T04:22:10.000Z,25.70
2022-11-30T04:32:10.000Z,25.20
2022-11-30T04:42:10.000Z,27.20
2022-11-30T04:52:10.000Z,25.90
2022-11-30T05:02:10.000Z,25.00
2022-11-30T05:12:10.000Z,25.40
2022-11-30T05:22:10.000Z,28.70
2022-11-30T05:32:09.000Z,27.20
2022-11-30T05:42:09.000Z,26.70
2022-11-30T05:52:09.000Z,26.70
2022-11-30T06:02:09.000Z,27.80
2022-11-30T06:12:09.000Z,29.10
2022-11-30T06:22:09.000Z,27.90
2022-11-30T06:32:09.000Z,29.20
2022-11-30T06:42:09.000Z,28.90
2022-11-30T06:52:09.000Z,29.50
2022-11-30T07:02:09.000Z,31.00
2022-11-30T07:12:08.000Z,33.80
2022-11-30T07:22:08.000Z,35.80
2022-11-30T07:32:08.000Z,39.40
2022-11-30T07:42:08.000Z,43.30
2022-11-30T07:52:08.000Z,44.70
2022-11-30T08:02:08.000Z,47.80
2022-11-30T08:12:08.000Z,49.50
2022-11-30T08:22:08.000Z,50.60
2022-11-30T08:32:08.000Z,51.40
2022-11-30T08:42:08.000Z,51.40
2022-11-30T08:52:08.000Z,52.30
2022-11-30T09:02:07.000Z,52.90
2022-11-30T09:12:07.000Z,52.30
2022-11-30T09:22:07.000Z,62.20
2022-11-30T09:32:07.000Z,56.40
2022-11-30T09:42:07.000Z,52.50
2022-11-30T09:52:07.000Z,51.10
2022-11-30T10:02:07.000Z,52.20
2022-11-30T10:12:07.000Z,49.80
2022-11-30T10:22:07.000Z,50.80
2022-11-30T10:32:07.000Z,50.20
2022-11-30T10:42:06.000Z,49.70
2022-11-30T10:52:06.000Z,49.70
2022-11-30T11:02:06.000Z,48.40
2022-11-30T11:12:06.000Z,47.80
2022-11-30T11:22:06.000Z,45.90
2022-11-30T11:32:06.000Z,44.50
2022-11-30T11:42:06.000Z,44.70
2022-11-30T11:52:06.000Z,44.80
2022-11-30T12:02:06.000Z,44.60
2022-11-30T12:12:06.000Z,46.50
2022-11-30T12:22:05.000Z,44.80
2022-11-30T12:32:05.000Z,45.70
2022-11-30T12:42:05.000Z,44.60
2022-11-30T12:52:05.000Z,43.40
2022-11-30T13:02:05.000Z,41.00
2022-11-30T13:12:05.000Z,41.60
2022-11-30T13:22:05.000Z,42.00
2022-11-30T13:22:05.000Z,42.00
2022-11-30T13:32:05.000Z,39.90
2022-11-30T13:42:05.000Z,41.00
2022-11-30T13:42:05.000Z,41.00
2022-11-30T13:52:05.000Z,40.00
2022-11-30T14:02:04.000Z,37.60
2022-11-30T14:12:04.000Z,41.90
2022-11-30T14:22:04.000Z,35.30
2022-11-30T14:32:04.000Z,34.10
2022-11-30T14:42:04.000Z,34.10
2022-11-30T14:52:04.000Z,34.80
2022-11-30T15:02:04.000Z,35.20
2022-11-30T15:12:04.000Z,33.30
2022-11-30T15:22:04.000Z,34.80
2022-11-30T15:32:04.000Z,34.60
2022-11-30T15:42:03.000Z,35.90
2022-11-30T15:52:03.000Z,35.00
2022-11-30T16:02:03.000Z,34.00
2022-11-30T16:12:03.000Z,36.50
2022-11-30T16:22:03.000Z,39.20
2022-11-30T16:32:03.000Z,39.20
2022-11-30T16:42:03.000Z,42.00
2022-11-30T16:52:03.000Z,40.70
2022-11-30T17:02:03.000Z,38.30
2022-11-30T17:12:03.000Z,39.60
2022-11-30T17:22:03.000Z,38.60
2022-11-30T17:32:02.000Z,46.80
2022-11-30T17:42:02.000Z,54.70
2022-11-30T17:52:02.000Z,57.40
2022-11-30T18:02:02.000Z,60.90
2022-11-30T18:12:02.000Z,70.00
2022-11-30T18:22:02.000Z,69.50
2022-11-30T18:32:02.000Z,70.80
2022-11-30T18:42:02.000Z,73.90
2022-11-30T18:52:02.000Z,76.00
2022-11-30T19:02:02.000Z,75.00
2022-11-30T19:12:01.000Z,81.30
2022-11-30T19:22:01.000Z,87.20
2022-11-30T19:32:01.000Z,88.70
2022-11-30T19:42:01.000Z,86.70
2022-11-30T19:52:01.000Z,83.50
2022-11-30T20:02:01.000Z,89.60
2022-11-30T20:12:01.000Z,92.30
2022-11-30T20:22:01.000Z,93.90
2022-11-30T20:32:01.000Z,95.00
2022-11-30T20:42:01.000Z,96.70
2022-11-30T20:52:01.000Z,96.00
2022-11-30T21:02:00.000Z,97.40
2022-11-30T21:12:00.000Z,97.60
2022-11-30T21:22:00.000Z,96.60
2022-11-30T21:32:00.000Z,100.80
2022-11-30T21:42:00.000Z,104.40
2022-11-30T21:52:00.000Z,101.80
2022-11-30T22:02:00.000Z,99.30
2022-11-30T22:12:00.000Z,101.70
2022-11-30T22:22:00.000Z,103.10
2022-11-30T22:32:00.000Z,107.80
2022-11-30T22:41:59.000Z,101.10
2022-11-30T22:51:59.000Z,105.50
2022-11-30T23:01:59.000Z,106.60
2022-11-30T23:11:59.000Z,107.70
2022-11-30T23:21:59.000Z,111.40
2022-11-30T23:31:59.000Z,110.90
2022-11-30T23:41:59.000Z,107.90
2022-11-30T23:51:59.000Z,110.10
